Time;durP1;ratioP1;P1;durP2;ratioP2;P2;SDS_P1;SDS_P2;PMS_P1;PMS_P2;Temp;Humidity;BMP_temperature;BMP_pressure;BME280_temperature;BME280_humidity;BME280_pressure;Samples;Min_cycle;Max_cycle;Signal;HPM_P1;HPM_P2
2021/06/05 00:01:58;;;;;;;3.65;1.45;;;;;;;-148.58;100.00;55229.56;4992796;28;20044;-63
2021/06/05 00:04:25;;;;;;;1.67;0.95;;;;;;;-148.58;100.00;55229.56;4993031;28;20430;-62
2021/06/05 00:06:51;;;;;;;0.90;0.75;;;;;;;-148.58;100.00;55229.56;5007783;28;20018;-63
2021/06/05 00:09:17;;;;;;;1.58;1.10;;;;;;;-148.58;100.00;55229.56;4992814;28;20019;-62
2021/06/05 00:11:43;;;;;;;1.70;0.93;;;;;;;-148.58;100.00;55229.56;5007599;28;20381;-62
2021/06/05 00:14:11;;;;;;;1.58;1.05;;;;;;;-148.58;100.00;55229.56;4992844;28;20045;-62
2021/06/05 00:16:41;;;;;;;1.02;0.90;;;;;;;-148.58;100.00;55229.56;4992396;28;20500;-62
2021/06/05 00:19:07;;;;;;;2.00;0.98;;;;;;;-148.58;100.00;55229.56;4992791;28;20037;-62
2021/06/05 00:21:33;;;;;;;3.03;1.17;;;;;;;-148.58;100.00;55229.56;4992524;28;20042;-62
2021/06/05 00:23:59;;;;;;;1.20;0.88;;;;;;;-148.58;100.00;55229.56;4992699;28;20057;-63
2021/06/05 00:26:25;;;;;;;1.92;0.98;;;;;;;-148.58;100.00;55229.56;4992773;28;20377;-63
2021/06/05 00:28:51;;;;;;;1.45;1.00;;;;;;;-148.58;100.00;55229.56;4992450;28;20109;-62
2021/06/05 00:31:17;;;;;;;1.75;0.90;;;;;;;-148.58;100.00;55229.56;4992701;28;20101;-63
2021/06/05 00:33:42;;;;;;;1.25;0.90;;;;;;;-148.58;100.00;55229.56;4992534;28;20424;-63
2021/06/05 00:36:09;;;;;;;1.40;0.88;;;;;;;-148.58;100.00;55229.56;4992675;28;20028;-62
2021/06/05 00:38:36;;;;;;;1.35;0.85;;;;;;;-148.58;100.00;55229.56;4992460;28;20022;-62
2021/06/05 00:41:03;;;;;;;1.60;1.00;;;;;;;-148.58;100.00;55229.56;4992576;28;20085;-63
2021/06/05 00:43:31;;;;;;;1.15;1.05;;;;;;;-148.58;100.00;55229.56;4992526;28;20030;-62
2021/06/05 00:45:58;;;;;;;1.80;0.82;;;;;;;-148.58;100.00;55229.56;4992790;28;20480;-63
2021/06/05 00:48:24;;;;;;;1.33;0.93;;;;;;;-148.58;100.00;55229.56;4992547;28;20102;-62
2021/06/05 00:50:50;;;;;;;1.25;0.90;;;;;;;-148.58;100.00;55229.56;4992483;28;20105;-61
2021/06/05 00:53:19;;;;;;;1.92;1.00;;;;;;;-148.58;100.00;55229.56;4992515;28;20030;-62
2021/06/05 00:55:47;;;;;;;1.80;0.95;;;;;;;-148.58;100.00;55229.56;4995424;28;20484;-62
2021/06/05 00:58:13;;;;;;;1.10;0.90;;;;;;;-148.58;100.00;55229.56;4995932;28;20042;-62
2021/06/05 01:00:55;;;;;;;3.40;1.08;;;;;;;-148.58;100.00;55229.56;4995597;28;20482;-62
2021/06/05 01:03:22;;;;;;;1.77;0.90;;;;;;;-148.58;100.00;55229.56;4995717;28;20019;-61
2021/06/05 01:05:54;;;;;;;1.27;0.88;;;;;;;-148.58;100.00;55229.56;4995714;28;20022;-62
2021/06/05 01:08:40;;;;;;;1.35;0.80;;;;;;;-148.58;100.00;55229.56;4995756;28;20033;-62
2021/06/05 01:11:18;;;;;;;1.20;0.90;;;;;;;-148.58;100.00;55229.56;4995713;28;20382;-62
2021/06/05 01:13:51;;;;;;;1.73;0.82;;;;;;;-148.58;100.00;55229.56;4995500;28;20037;-63
2021/06/05 01:16:21;;;;;;;0.80;0.77;;;;;;;-148.58;100.00;55229.56;4995582;28;20022;-62
2021/06/05 01:19:08;;;;;;;1.23;0.82;;;;;;;-148.58;100.00;55229.56;4995361;28;20058;-63
2021/06/05 01:22:01;;;;;;;1.67;0.80;;;;;;;-148.58;100.00;55229.56;4995382;28;20043;-62
2021/06/05 01:24:48;;;;;;;1.92;0.95;;;;;;;-148.58;100.00;55229.56;4995494;28;20160;-62
2021/06/05 01:27:27;;;;;;;1.27;0.80;;;;;;;-148.58;100.00;55229.56;4995588;28;20022;-62
2021/06/05 01:29:56;;;;;;;1.73;0.80;;;;;;;-148.58;100.00;55229.56;4995367;28;20031;-62
2021/06/05 01:32:24;;;;;;;1.45;0.68;;;;;;;-148.58;100.00;55229.56;4995281;28;20114;-62
2021/06/05 01:34:54;;;;;;;1.10;0.65;;;;;;;-148.58;100.00;55229.56;4995065;28;20033;-62
2021/06/05 01:37:21;;;;;;;1.10;0.90;;;;;;;-148.58;100.00;55229.56;4995174;28;20026;-63
2021/06/05 01:39:48;;;;;;;1.27;1.02;;;;;;;-148.58;100.00;55229.56;4995016;28;20105;-62
2021/06/05 01:42:17;;;;;;;1.52;1.00;;;;;;;-148.58;100.00;55229.56;4995176;28;20117;-62
2021/06/05 01:44:48;;;;;;;1.05;0.95;;;;;;;-148.58;100.00;55229.56;4994893;28;20069;-62
2021/06/05 01:47:14;;;;;;;1.73;0.98;;;;;;;-148.58;100.00;55229.56;4994995;28;20026;-62
2021/06/05 01:49:40;;;;;;;1.38;1.10;;;;;;;-148.58;100.00;55229.56;4994971;28;20026;-62
2021/06/05 01:52:11;;;;;;;1.45;1.10;;;;;;;-148.58;100.00;55229.56;4994970;28;20470;-62
2021/06/05 01:54:45;;;;;;;1.35;0.90;;;;;;;-148.58;100.00;55229.56;4994760;28;20056;-62
2021/06/05 01:57:16;;;;;;;1.20;0.88;;;;;;;-148.58;100.00;55229.56;4994830;28;20022;-62
2021/06/05 01:59:42;;;;;;;1.15;0.88;;;;;;;-148.58;100.00;55229.56;4994620;28;20030;-62
2021/06/05 02:02:08;;;;;;;0.88;0.75;;;;;;;-148.58;100.00;55229.56;4993425;28;20026;-61
2021/06/05 02:04:33;;;;;;;1.13;0.80;;;;;;;-148.58;100.00;55229.56;4994370;28;20417;-61
2021/06/05 02:06:59;;;;;;;2.55;1.00;;;;;;;-148.58;100.00;55229.56;4994591;28;20393;-61
2021/06/05 02:09:27;;;;;;;1.08;0.80;;;;;;;-148.58;100.00;55229.56;4994146;28;20362;-61
2021/06/05 02:11:59;;;;;;;1.10;0.90;;;;;;;-148.58;100.00;55229.56;4994381;28;20026;-62
2021/06/05 02:14:29;;;;;;;1.10;0.80;;;;;;;-148.58;100.00;55229.56;4994749;28;20061;-62
2021/06/05 02:16:55;;;;;;;1.15;0.95;;;;;;;-148.58;100.00;55229.56;4994326;28;20026;-62
2021/06/05 02:19:30;;;;;;;2.90;1.00;;;;;;;-148.58;100.00;55229.56;4994462;28;20201;-62
2021/06/05 02:22:00;;;;;;;1.55;0.82;;;;;;;-148.58;100.00;55229.56;4974616;28;20139;-62
2021/06/05 02:24:33;;;;;;;1.23;0.85;;;;;;;-148.58;100.00;55229.56;4974888;28;20026;-62
2021/06/05 02:27:00;;;;;;;1.92;0.77;;;;;;;-148.58;100.00;55229.56;4974764;28;20189;-62
2021/06/05 02:29:29;;;;;;;2.90;0.88;;;;;;;-148.58;100.00;55229.56;4974672;28;20035;-62
2021/06/05 02:31:55;;;;;;;0.80;0.70;;;;;;;-148.58;100.00;55229.56;4974831;28;20489;-62
2021/06/05 02:34:26;;;;;;;1.45;0.70;;;;;;;-148.58;100.00;55229.56;4974728;28;20062;-61
2021/06/05 02:36:55;;;;;;;1.27;0.70;;;;;;;-148.58;100.00;55229.56;4974501;28;20054;-61
2021/06/05 02:39:24;;;;;;;1.20;0.90;;;;;;;-148.58;100.00;55229.56;4989376;28;20458;-62
2021/06/05 02:41:52;;;;;;;2.53;1.02;;;;;;;-148.58;100.00;55229.56;4974380;28;20158;-62
2021/06/05 02:44:23;;;;;;;1.13;0.73;;;;;;;-148.58;100.00;55229.56;4974604;28;20483;-62
2021/06/05 02:46:49;;;;;;;0.75;0.65;;;;;;;-148.58;100.00;55229.56;4974217;28;20471;-62
2021/06/05 02:49:17;;;;;;;1.67;0.75;;;;;;;-148.58;100.00;55229.56;4974387;28;20033;-62
2021/06/05 02:51:45;;;;;;;1.67;0.90;;;;;;;-148.58;100.00;55229.56;4977387;28;20033;-61
2021/06/05 02:54:10;;;;;;;1.98;0.70;;;;;;;-148.58;100.00;55229.56;5008823;28;20071;-61
2021/06/05 02:56:35;;;;;;;1.30;0.93;;;;;;;-148.58;100.00;55229.56;4993578;28;20065;-61
2021/06/05 02:59:02;;;;;;;1.75;0.57;;;;;;;-148.58;100.00;55229.56;4993729;28;20046;-61
2021/06/05 03:01:27;;;;;;;1.10;0.65;;;;;;;-148.58;100.00;55229.56;4992324;28;20030;-62
2021/06/05 03:03:52;;;;;;;1.65;1.05;;;;;;;-148.58;100.00;55229.56;4993379;28;20029;-62
2021/06/05 03:06:19;;;;;;;2.55;0.80;;;;;;;-148.58;100.00;55229.56;4993661;28;20068;-62
2021/06/05 03:08:45;;;;;;;1.13;0.77;;;;;;;-148.58;100.00;55229.56;5008332;28;20034;-62
2021/06/05 03:11:14;;;;;;;1.60;0.93;;;;;;;-148.58;100.00;55229.56;5008531;28;20069;-62
2021/06/05 03:13:40;;;;;;;3.15;0.90;;;;;;;-148.58;100.00;55229.56;4993254;28;20022;-62
2021/06/05 03:16:07;;;;;;;1.27;0.68;;;;;;;-148.58;100.00;55229.56;4993391;28;20034;-62
2021/06/05 03:18:33;;;;;;;2.45;1.20;;;;;;;-148.58;100.00;55229.56;5008093;28;20351;-61
2021/06/05 03:20:59;;;;;;;1.10;0.90;;;;;;;-148.58;100.00;55229.56;4993193;28;20053;-62
2021/06/05 03:23:27;;;;;;;1.05;0.68;;;;;;;-148.58;100.00;55229.56;4993220;28;20046;-62
2021/06/05 03:25:53;;;;;;;1.00;0.90;;;;;;;-148.58;100.00;55229.56;4993004;28;20030;-63
2021/06/05 03:28:21;;;;;;;0.77;0.70;;;;;;;-148.58;100.00;55229.56;4993262;28;20049;-62
2021/06/05 03:30:47;;;;;;;1.92;0.80;;;;;;;-148.58;100.00;55229.56;4993017;28;20041;-62
2021/06/05 03:33:12;;;;;;;1.05;0.63;;;;;;;-148.58;100.00;55229.56;4993212;28;20026;-62
2021/06/05 03:35:37;;;;;;;0.82;0.63;;;;;;;-148.58;100.00;55229.56;4993053;28;20030;-62
2021/06/05 03:38:05;;;;;;;1.55;0.60;;;;;;;-148.58;100.00;55229.56;4993389;28;20023;-61
2021/06/05 03:40:32;;;;;;;1.17;0.90;;;;;;;-148.58;100.00;55229.56;4992983;28;20466;-62
2021/06/05 03:42:58;;;;;;;0.80;0.75;;;;;;;-148.58;100.00;55229.56;4993334;28;20043;-62
2021/06/05 03:45:24;;;;;;;2.22;1.35;;;;;;;-148.58;100.00;55229.56;4993135;28;20019;-62
2021/06/05 03:47:50;;;;;;;1.02;0.75;;;;;;;-148.58;100.00;55229.56;4992868;28;20470;-62
2021/06/05 03:50:20;;;;;;;1.17;0.82;;;;;;;-148.58;100.00;55229.56;4993097;28;20105;-62
2021/06/05 03:52:45;;;;;;;1.27;0.98;;;;;;;-148.58;100.00;55229.56;5007886;28;20038;-62
2021/06/05 03:55:12;;;;;;;2.78;0.90;;;;;;;-148.58;100.00;55229.56;4992955;28;20023;-62
2021/06/05 03:57:38;;;;;;;1.38;0.60;;;;;;;-148.58;100.00;55229.56;4992857;28;20027;-61
2021/06/05 04:00:07;;;;;;;1.42;0.90;;;;;;;-148.58;100.00;55229.56;4993187;28;20027;-62
2021/06/05 04:02:32;;;;;;;0.85;0.70;;;;;;;-148.58;100.00;55229.56;4991555;28;20033;-63
2021/06/05 04:04:58;;;;;;;1.20;0.90;;;;;;;-148.58;100.00;55229.56;4992905;28;20613;-62
2021/06/05 04:07:23;;;;;;;1.92;0.95;;;;;;;-148.58;100.00;55229.56;4992914;28;20026;-63
2021/06/05 04:09:48;;;;;;;0.68;0.68;;;;;;;-148.58;100.00;55229.56;4992683;28;20030;-62
2021/06/05 04:12:14;;;;;;;1.10;0.82;;;;;;;-148.58;100.00;55229.56;4992924;28;20040;-62
2021/06/05 04:14:40;;;;;;;0.80;0.68;;;;;;;-148.58;100.00;55229.56;4992561;28;20076;-62
2021/06/05 04:17:07;;;;;;;1.58;0.88;;;;;;;-148.58;100.00;55229.56;4992627;28;20409;-62
2021/06/05 04:19:33;;;;;;;1.75;0.88;;;;;;;-148.58;100.00;55229.56;4992611;28;20030;-62
2021/06/05 04:21:58;;;;;;;1.65;0.90;;;;;;;-148.58;100.00;55229.56;4992691;28;20085;-63
2021/06/05 04:24:23;;;;;;;1.95;0.80;;;;;;;-148.58;100.00;55229.56;4992807;28;20359;-63
2021/06/05 04:26:50;;;;;;;1.38;0.88;;;;;;;-148.58;100.00;55229.56;4992425;28;20022;-62
2021/06/05 04:29:15;;;;;;;1.40;0.75;;;;;;;-148.58;100.00;55229.56;5010300;28;20030;-62
2021/06/05 04:31:40;;;;;;;1.17;0.90;;;;;;;-148.58;100.00;55229.56;4996261;28;20201;-63
2021/06/05 04:34:06;;;;;;;1.10;0.95;;;;;;;-148.58;100.00;55229.56;4996455;28;20026;-63
2021/06/05 04:36:31;;;;;;;1.90;1.02;;;;;;;-148.58;100.00;55229.56;4996204;28;20030;-63
2021/06/05 04:38:57;;;;;;;1.38;1.00;;;;;;;-148.58;100.00;55229.56;4996244;28;20030;-62
2021/06/05 04:41:25;;;;;;;1.35;0.90;;;;;;;-148.58;100.00;55229.56;4996264;28;20022;-63
2021/06/05 04:43:51;;;;;;;2.95;0.80;;;;;;;-148.58;100.00;55229.56;4996006;28;20109;-64
2021/06/05 04:46:17;;;;;;;3.63;0.93;;;;;;;-148.58;100.00;55229.56;4996245;28;20109;-63
2021/06/05 04:48:45;;;;;;;4.00;1.38;;;;;;;-148.58;100.00;55229.56;4995722;28;20026;-62
2021/06/05 04:51:13;;;;;;;2.25;0.98;;;;;;;-148.58;100.00;55229.56;4996032;28;20018;-62
2021/06/05 04:53:39;;;;;;;0.75;0.60;;;;;;;-148.58;100.00;55229.56;4995870;28;20045;-62
2021/06/05 04:56:05;;;;;;;1.77;0.93;;;;;;;-148.58;100.00;55229.56;4996065;28;20034;-62
2021/06/05 04:58:30;;;;;;;3.50;0.93;;;;;;;-148.58;100.00;55229.56;4995803;28;20394;-62
2021/06/05 05:00:56;;;;;;;1.90;0.80;;;;;;;-148.58;100.00;55229.56;4996089;28;20102;-63
2021/06/05 05:03:25;;;;;;;3.33;0.90;;;;;;;-148.58;100.00;55229.56;4995760;28;20113;-63
2021/06/05 05:05:56;;;;;;;1.95;1.00;;;;;;;-148.58;100.00;55229.56;4995640;28;20058;-64
2021/06/05 05:08:21;;;;;;;2.08;1.10;;;;;;;-148.58;100.00;55229.56;4995774;28;20485;-63
2021/06/05 05:10:51;;;;;;;1.92;0.95;;;;;;;-148.58;100.00;55229.56;4995557;28;20120;-63
2021/06/05 05:13:22;;;;;;;3.00;1.25;;;;;;;-148.58;100.00;55229.56;4995665;28;20030;-62
2021/06/05 05:15:47;;;;;;;1.60;0.75;;;;;;;-148.58;100.00;55229.56;4995326;28;20030;-62
2021/06/05 05:18:13;;;;;;;2.35;0.90;;;;;;;-148.58;100.00;55229.56;4995534;28;20026;-62
2021/06/05 05:20:40;;;;;;;2.75;1.08;;;;;;;-148.58;100.00;55229.56;4995067;28;20038;-63
2021/06/05 05:23:10;;;;;;;2.75;1.00;;;;;;;-148.58;100.00;55229.56;4995341;28;20053;-63
2021/06/05 05:25:38;;;;;;;2.08;1.10;;;;;;;-148.58;100.00;55229.56;4995158;28;20137;-63
2021/06/05 05:28:03;;;;;;;1.13;0.98;;;;;;;-148.58;100.00;55229.56;4995345;28;20485;-63
2021/06/05 05:30:37;;;;;;;1.45;1.00;;;;;;;-148.58;100.00;55229.56;4995121;28;20038;-62
2021/06/05 05:33:03;;;;;;;1.85;0.70;;;;;;;-148.58;100.00;55229.56;4995191;28;20030;-62
2021/06/05 05:35:29;;;;;;;1.85;1.08;;;;;;;-148.58;100.00;55229.56;4993723;28;20031;-62
2021/06/05 05:37:55;;;;;;;1.33;0.90;;;;;;;-148.58;100.00;55229.56;4995092;28;20037;-63
2021/06/05 05:40:22;;;;;;;0.80;0.80;;;;;;;-148.58;100.00;55229.56;4994635;28;20030;-63
2021/06/05 05:42:47;;;;;;;1.25;0.90;;;;;;;-148.58;100.00;55229.56;4994984;28;20495;-64
2021/06/05 05:45:14;;;;;;;1.55;1.00;;;;;;;-148.58;100.00;55229.56;4995070;28;20026;-64
2021/06/05 05:47:39;;;;;;;2.00;0.77;;;;;;;-148.58;100.00;55229.56;4994926;28;20045;-64
2021/06/05 05:50:08;;;;;;;1.73;0.90;;;;;;;-148.58;100.00;55229.56;4994874;28;20030;-63
2021/06/05 05:52:34;;;;;;;1.55;0.88;;;;;;;-148.58;100.00;55229.56;4994717;28;20069;-63
2021/06/05 05:54:59;;;;;;;1.00;0.52;;;;;;;-148.58;100.00;55229.56;4994897;28;20030;-62
2021/06/05 05:57:25;;;;;;;1.40;0.80;;;;;;;-148.58;100.00;55229.56;4994782;28;20061;-63
2021/06/05 05:59:50;;;;;;;1.42;1.10;;;;;;;-148.58;100.00;55229.56;4994686;28;20033;-63
2021/06/05 06:02:15;;;;;;;1.48;0.73;;;;;;;-148.58;100.00;55229.56;4994735;28;20485;-63
2021/06/05 06:04:40;;;;;;;0.73;0.73;;;;;;;-148.58;100.00;55229.56;4994576;28;20047;-64
2021/06/05 06:07:06;;;;;;;1.08;0.80;;;;;;;-148.58;100.00;55229.56;4994688;28;20018;-63
2021/06/05 06:09:31;;;;;;;1.45;0.90;;;;;;;-148.58;100.00;55229.56;4994271;28;20462;-63
2021/06/05 06:11:56;;;;;;;2.90;0.90;;;;;;;-148.58;100.00;55229.56;4994479;28;20026;-63
2021/06/05 06:14:22;;;;;;;0.98;0.75;;;;;;;-148.58;100.00;55229.56;4994590;28;20104;-63
2021/06/05 06:16:47;;;;;;;1.42;0.80;;;;;;;-148.58;100.00;55229.56;4994241;28;20189;-63
2021/06/05 06:19:13;;;;;;;0.70;0.60;;;;;;;-148.58;100.00;55229.56;4994363;28;20025;-63
2021/06/05 06:21:43;;;;;;;1.17;0.70;;;;;;;-148.58;100.00;55229.56;4994102;28;20121;-64
2021/06/05 06:24:09;;;;;;;2.65;1.10;;;;;;;-148.58;100.00;55229.56;4994675;28;20038;-64
2021/06/05 06:26:35;;;;;;;1.27;0.98;;;;;;;-148.58;100.00;55229.56;4994048;28;20469;-64
2021/06/05 06:29:16;;;;;;;0.93;0.82;;;;;;;-148.58;100.00;55229.56;4994196;28;20085;-64
2021/06/05 06:31:44;;;;;;;0.70;0.50;;;;;;;-148.58;100.00;55229.56;4994058;28;20029;-64
2021/06/05 06:34:10;;;;;;;1.33;0.85;;;;;;;-148.58;100.00;55229.56;4994184;28;20063;-63
2021/06/05 06:36:38;;;;;;;1.23;0.80;;;;;;;-148.58;100.00;55229.56;4993924;28;20404;-63
2021/06/05 06:39:04;;;;;;;1.42;0.80;;;;;;;-148.58;100.00;55229.56;4994325;28;20057;-63
2021/06/05 06:41:30;;;;;;;2.35;0.82;;;;;;;-148.58;100.00;55229.56;5009037;28;20049;-62
2021/06/05 06:43:57;;;;;;;2.47;0.82;;;;;;;-148.58;100.00;55229.56;4993972;28;20482;-63
2021/06/05 06:46:26;;;;;;;1.45;0.68;;;;;;;-148.58;100.00;55229.56;4994084;28;20022;-63
2021/06/05 06:48:53;;;;;;;1.23;0.70;;;;;;;-148.58;100.00;55229.56;4993920;28;20449;-63
2021/06/05 06:51:19;;;;;;;2.40;0.75;;;;;;;-148.58;100.00;55229.56;4993298;28;20058;-63
2021/06/05 06:53:45;;;;;;;1.15;0.80;;;;;;;-148.58;100.00;55229.56;4993476;28;20109;-63
2021/06/05 06:56:11;;;;;;;1.73;0.77;;;;;;;-148.58;100.00;55229.56;4993797;28;20110;-63
2021/06/05 06:58:36;;;;;;;3.78;0.90;;;;;;;-148.58;100.00;55229.56;4993552;28;20382;-62
2021/06/05 07:01:02;;;;;;;1.10;0.70;;;;;;;-148.58;100.00;55229.56;4993730;28;20050;-63
2021/06/05 07:03:29;;;;;;;1.10;0.85;;;;;;;-148.58;100.00;55229.56;4993882;28;20034;-63
2021/06/05 07:05:54;;;;;;;0.95;0.70;;;;;;;-148.58;100.00;55229.56;4993564;28;20045;-63
2021/06/05 07:08:23;;;;;;;2.38;0.82;;;;;;;-148.58;100.00;55229.56;4993544;28;20030;-63
2021/06/05 07:10:52;;;;;;;2.33;0.90;;;;;;;-148.58;100.00;55229.56;5008188;28;20126;-62
2021/06/05 07:13:18;;;;;;;2.28;0.80;;;;;;;-148.58;100.00;55229.56;4993497;28;20057;-62
2021/06/05 07:15:44;;;;;;;1.55;0.80;;;;;;;-148.58;100.00;55229.56;4993284;28;20482;-62
2021/06/05 07:18:11;;;;;;;1.88;0.80;;;;;;;-148.58;100.00;55229.56;4993514;28;20030;-62
2021/06/05 07:20:38;;;;;;;0.93;0.50;;;;;;;-148.58;100.00;55229.56;4993144;28;20050;-62
2021/06/05 07:23:04;;;;;;;1.75;0.50;;;;;;;-148.58;100.00;55229.56;4993302;28;20133;-63
2021/06/05 07:25:29;;;;;;;1.73;0.85;;;;;;;-148.58;100.00;55229.56;4993159;28;20045;-63
2021/06/05 07:27:56;;;;;;;1.73;0.70;;;;;;;-148.58;100.00;55229.56;4993242;28;20026;-63
2021/06/05 07:30:23;;;;;;;1.42;0.50;;;;;;;-148.58;100.00;55229.56;4992061;28;20469;-62
2021/06/05 07:32:50;;;;;;;0.98;0.77;;;;;;;-148.58;100.00;55229.56;4993065;28;20486;-63
2021/06/05 07:35:16;;;;;;;0.80;0.60;;;;;;;-148.58;100.00;55229.56;4993292;28;20057;-63
2021/06/05 07:37:41;;;;;;;2.55;0.85;;;;;;;-148.58;100.00;55229.56;4993023;28;20026;-63
2021/06/05 07:40:09;;;;;;;1.35;0.60;;;;;;;-148.58;100.00;55229.56;4993265;28;20069;-63
2021/06/05 07:42:36;;;;;;;1.98;0.55;;;;;;;-148.58;100.00;55229.56;4992930;28;20026;-63
2021/06/05 07:45:03;;;;;;;3.15;0.93;;;;;;;-148.58;100.00;55229.56;4993141;28;20023;-64
2021/06/05 07:47:29;;;;;;;2.97;0.90;;;;;;;-148.58;100.00;55229.56;4992958;28;20073;-62
2021/06/05 07:49:54;;;;;;;0.90;0.63;;;;;;;-148.58;100.00;55229.56;4992849;28;20031;-63
2021/06/05 07:52:23;;;;;;;1.40;0.60;;;;;;;-148.58;100.00;55229.56;4993129;28;20390;-62
2021/06/05 07:54:52;;;;;;;2.78;1.05;;;;;;;-148.58;100.00;55229.56;4992791;28;20038;-63
2021/06/05 07:57:17;;;;;;;2.85;0.75;;;;;;;-148.58;100.00;55229.56;4993051;28;20022;-63
2021/06/05 07:59:43;;;;;;;1.65;0.80;;;;;;;-148.58;100.00;55229.56;4991870;28;20118;-63
2021/06/05 08:02:08;;;;;;;1.10;0.70;;;;;;;-148.58;100.00;55229.56;4992948;28;20553;-64
2021/06/05 08:04:33;;;;;;;1.00;0.73;;;;;;;-148.58;100.00;55229.56;4996019;28;20045;-64
2021/06/05 08:06:59;;;;;;;1.45;0.60;;;;;;;-148.58;100.00;55229.56;4996936;28;20469;-62
2021/06/05 08:09:24;;;;;;;2.78;1.35;;;;;;;-148.58;100.00;55229.56;4996823;28;20144;-63
2021/06/05 08:11:49;;;;;;;2.10;0.80;;;;;;;-148.58;100.00;55229.56;4996625;28;20030;-62
2021/06/05 08:14:15;;;;;;;1.70;0.70;;;;;;;-148.58;100.00;55229.56;4996857;28;20030;-62
2021/06/05 08:16:40;;;;;;;3.25;0.98;;;;;;;-148.58;100.00;55229.56;4996316;28;20022;-63
2021/06/05 08:19:11;;;;;;;1.33;0.60;;;;;;;-148.58;100.00;55229.56;4996796;28;20450;-63
2021/06/05 08:21:37;;;;;;;2.88;0.70;;;;;;;-148.58;100.00;55229.56;4996333;28;20042;-63
2021/06/05 08:24:04;;;;;;;1.83;1.08;;;;;;;-148.58;100.00;55229.56;4996605;28;20018;-62
2021/06/05 08:26:30;;;;;;;0.93;0.50;;;;;;;-148.58;100.00;55229.56;4996362;28;20073;-62
2021/06/05 08:28:55;;;;;;;2.20;1.05;;;;;;;-148.58;100.00;55229.56;4996418;28;20030;-62
2021/06/05 08:31:22;;;;;;;2.17;0.65;;;;;;;-148.58;100.00;55229.56;4996462;28;20381;-63
2021/06/05 08:33:48;;;;;;;1.77;0.93;;;;;;;-148.58;100.00;55229.56;4996355;28;20474;-63
2021/06/05 08:36:16;;;;;;;1.35;0.90;;;;;;;-148.58;100.00;55229.56;4996476;28;20104;-63
2021/06/05 08:38:42;;;;;;;1.05;0.55;;;;;;;-148.58;100.00;55229.56;4996124;28;20023;-64
2021/06/05 08:41:13;;;;;;;1.10;0.60;;;;;;;-148.58;100.00;55229.56;4996321;28;20018;-63
2021/06/05 08:43:47;;;;;;;2.00;0.85;;;;;;;-148.58;100.00;55229.56;4996150;28;20157;-62
2021/06/05 08:46:19;;;;;;;2.70;0.80;;;;;;;-148.58;100.00;55229.56;4996274;28;20033;-62
2021/06/05 08:48:44;;;;;;;1.65;0.60;;;;;;;-148.58;100.00;55229.56;4995909;28;20049;-63
2021/06/05 08:51:18;;;;;;;1.20;0.65;;;;;;;-148.58;100.00;55229.56;5011144;28;20495;-62
2021/06/05 08:53:43;;;;;;;2.60;0.80;;;;;;;-148.58;100.00;55229.56;4996222;28;20026;-62
2021/06/05 08:56:15;;;;;;;1.15;0.60;;;;;;;-148.58;100.00;55229.56;4996089;28;20446;-62
2021/06/05 08:58:48;;;;;;;3.92;1.05;;;;;;;-148.58;100.00;55229.56;4995720;28;20462;-63
2021/06/05 09:01:37;;;;;;;2.67;0.77;;;;;;;-148.58;100.00;55229.56;4995952;28;20389;-63
2021/06/05 09:04:08;;;;;;;0.95;0.40;;;;;;;-148.58;100.00;55229.56;4995893;28;20034;-63
2021/06/05 09:06:38;;;;;;;1.35;0.55;;;;;;;-148.58;100.00;55229.56;4995581;28;20085;-63
2021/06/05 09:09:08;;;;;;;1.25;0.80;;;;;;;-148.58;100.00;55229.56;4995719;28;20441;-63
2021/06/05 09:11:34;;;;;;;2.10;0.70;;;;;;;-148.58;100.00;55229.56;4995841;28;20030;-63
2021/06/05 09:13:59;;;;;;;2.38;0.80;;;;;;;-148.58;100.00;55229.56;4995482;28;20043;-62
2021/06/05 09:16:47;;;;;;;3.00;0.60;;;;;;;-148.58;100.00;55229.56;4994860;28;20029;-62
2021/06/05 09:19:18;;;;;;;2.40;0.95;;;;;;;-148.58;100.00;55229.56;4995485;28;20046;-62
2021/06/05 09:21:48;;;;;;;1.23;0.60;;;;;;;-148.58;100.00;55229.56;4995219;28;20046;-62
2021/06/05 09:24:16;;;;;;;1.05;0.60;;;;;;;-148.58;100.00;55229.56;4995567;28;20057;-63
2021/06/05 09:27:00;;;;;;;2.20;0.70;;;;;;;-148.58;100.00;55229.56;4995166;28;20094;-63
2021/06/05 09:29:26;;;;;;;2.63;1.02;;;;;;;-148.58;100.00;55229.56;4995235;28;20462;-63
2021/06/05 09:31:59;;;;;;;1.05;0.68;;;;;;;-148.58;100.00;55229.56;4995464;28;20215;-64
2021/06/05 09:34:38;;;;;;;1.17;0.50;;;;;;;-148.58;100.00;55229.56;4994014;28;20030;-63
2021/06/05 09:37:04;;;;;;;2.88;0.80;;;;;;;-148.58;100.00;55229.56;4995299;28;20026;-62
2021/06/05 09:39:58;;;;;;;2.47;0.90;;;;;;;-148.58;100.00;55229.56;4995048;28;20076;-63
2021/06/05 09:42:34;;;;;;;1.90;0.80;;;;;;;-148.58;100.00;55229.56;4994808;28;20038;-62
2021/06/05 09:45:01;;;;;;;2.97;0.98;;;;;;;-148.58;100.00;55229.56;4995062;28;20397;-62
2021/06/05 09:47:30;;;;;;;2.17;0.80;;;;;;;-148.58;100.00;55229.56;4995002;28;20109;-62
2021/06/05 09:50:23;;;;;;;0.80;0.60;;;;;;;-148.58;100.00;55229.56;4994841;28;20026;-62
2021/06/05 09:52:49;;;;;;;1.40;0.60;;;;;;;-148.58;100.00;55229.56;4994633;28;20041;-63
2021/06/05 09:55:14;;;;;;;0.75;0.43;;;;;;;-148.58;100.00;55229.56;4994967;28;20026;-62
2021/06/05 09:57:41;;;;;;;1.90;1.00;;;;;;;-148.58;100.00;55229.56;4994669;28;20027;-62
2021/06/05 10:00:37;;;;;;;2.97;0.60;;;;;;;-148.58;100.00;55229.56;4994788;28;20315;-63
2021/06/05 10:03:34;;;;;;;0.90;0.60;;;;;;;-148.58;100.00;55229.56;4994985;28;20355;-62
2021/06/05 10:06:16;;;;;;;1.10;0.75;;;;;;;-148.58;100.00;55229.56;4994653;28;20190;-63
2021/06/05 10:08:42;;;;;;;1.83;0.70;;;;;;;-148.58;100.00;55229.56;4994296;28;20030;-64
2021/06/05 10:11:30;;;;;;;1.58;0.50;;;;;;;-148.58;100.00;55229.56;4994647;28;20470;-63
2021/06/05 10:14:07;;;;;;;1.58;0.73;;;;;;;-148.58;100.00;55229.56;4933993;29;20047;-63
2021/06/05 10:16:36;;;;;;;3.40;0.90;;;;;;;-148.58;100.00;55229.56;4934053;29;20044;-62
2021/06/05 10:19:23;;;;;;;2.58;0.80;;;;;;;-148.58;100.00;55229.56;4934146;29;20387;-62
2021/06/05 10:21:49;;;;;;;1.67;0.75;;;;;;;-148.58;100.00;55229.56;4961479;23;20050;-63
2021/06/05 10:24:24;;;;;;;1.05;0.55;;;;;;;-148.58;100.00;55229.56;4994387;28;20482;-62
2021/06/05 10:26:52;;;;;;;0.75;0.63;;;;;;;-148.58;100.00;55229.56;5003111;28;20033;-62
2021/06/05 10:29:42;;;;;;;1.75;0.68;;;;;;;-148.58;100.00;55229.56;5013800;28;20157;-62
2021/06/05 10:32:13;;;;;;;1.35;0.55;;;;;;;-148.58;100.00;55229.56;4933809;29;20059;-62
2021/06/05 10:34:43;;;;;;;1.00;0.60;;;;;;;-148.58;100.00;55229.56;4933676;29;20090;-62
2021/06/05 10:37:19;;;;;;;2.28;0.88;;;;;;;-148.58;100.00;55229.56;4931108;29;20035;-63
2021/06/05 10:39:47;;;;;;;3.60;1.02;;;;;;;-148.58;100.00;55229.56;4914624;29;20028;-62
2021/06/05 10:42:18;;;;;;;1.77;0.60;;;;;;;-148.58;100.00;55229.56;4914881;29;20060;-64
2021/06/05 10:44:44;;;;;;;0.98;0.40;;;;;;;-148.58;100.00;55229.56;4914506;29;20111;-62
2021/06/05 10:47:14;;;;;;;2.38;0.73;;;;;;;-148.58;100.00;55229.56;4914706;29;20587;-62
2021/06/05 10:50:06;;;;;;;2.30;0.85;;;;;;;-148.58;100.00;55229.56;4914365;29;20040;-62
2021/06/05 10:52:59;;;;;;;1.45;0.50;;;;;;;-148.58;100.00;55229.56;4910104;29;20044;-62
2021/06/05 10:55:31;;;;;;;1.02;0.60;;;;;;;-148.58;100.00;55229.56;4914579;29;20060;-62
2021/06/05 10:58:08;;;;;;;0.75;0.50;;;;;;;-148.58;100.00;55229.56;4914421;29;20385;-62
2021/06/05 11:00:51;;;;;;;3.33;0.80;;;;;;;-148.58;100.00;55229.56;4914305;29;20035;-62
2021/06/05 11:03:22;;;;;;;1.25;0.55;;;;;;;-148.58;100.00;55229.56;4914431;29;20040;-62
2021/06/05 11:06:06;;;;;;;2.38;0.80;;;;;;;-148.58;100.00;55229.56;4914306;29;20056;-62
2021/06/05 11:08:41;;;;;;;1.73;0.70;;;;;;;-148.58;100.00;55229.56;4932831;28;20145;-62
2021/06/05 11:11:06;;;;;;;1.52;0.80;;;;;;;-148.58;100.00;55229.56;4993590;28;20032;-63
2021/06/05 11:13:32;;;;;;;1.57;0.60;;;;;;;-148.58;100.00;55229.56;4993323;28;20113;-62
2021/06/05 11:16:04;;;;;;;2.40;0.93;;;;;;;-148.58;100.00;55229.56;4993387;28;20260;-62
2021/06/05 11:18:49;;;;;;;2.28;1.00;;;;;;;-148.58;100.00;55229.56;4993356;28;20057;-62